createdAt,value
2018-03-16T00:00:52.230Z,6.05
2018-03-16T00:03:26.380Z,6.03
2018-03-16T00:06:00.139Z,6.04
2018-03-16T00:08:33.906Z,6.05
2018-03-16T00:11:07.499Z,6.02
2018-03-16T00:13:41.055Z,6.01
2018-03-16T00:16:14.861Z,6.03
2018-03-16T00:18:48.440Z,6.01
2018-03-16T00:21:22.226Z,5.98
2018-03-16T00:23:55.814Z,6.00
2018-03-16T00:26:29.426Z,5.98
2018-03-16T00:29:03.220Z,6.01
2018-03-16T00:31:37.014Z,6.04
2018-03-16T00:34:10.712Z,6.03
2018-03-16T00:36:44.298Z,6.04
2018-03-16T00:39:18.083Z,6.01
2018-03-16T00:41:51.624Z,6.01
2018-03-16T00:44:25.151Z,6.02
2018-03-16T00:46:58.755Z,6.03
2018-03-16T00:49:32.416Z,6.00
2018-03-16T00:52:05.956Z,6.01
2018-03-16T00:54:39.591Z,5.97
2018-03-16T00:57:13.212Z,5.98
2018-03-16T00:59:46.943Z,5.99
2018-03-16T01:02:20.794Z,5.97
2018-03-16T01:04:54.736Z,5.92
2018-03-16T01:07:28.463Z,5.87
2018-03-16T01:10:02.174Z,5.90
2018-03-16T01:12:35.756Z,5.94
2018-03-16T01:15:09.625Z,5.91
2018-03-16T01:17:43.312Z,5.90
2018-03-16T01:20:17.016Z,5.93
2018-03-16T01:22:50.724Z,5.90
2018-03-16T01:25:24.325Z,5.93
2018-03-16T01:27:57.964Z,5.92
2018-03-16T01:30:31.559Z,5.92
2018-03-16T01:33:05.171Z,5.90
2018-03-16T01:35:38.724Z,5.84
2018-03-16T01:38:12.413Z,5.87
2018-03-16T01:40:46.040Z,5.86
2018-03-16T01:43:19.687Z,5.82
2018-03-16T01:45:53.552Z,5.88
2018-03-16T01:48:27.135Z,5.85
2018-03-16T01:51:00.752Z,5.83
2018-03-16T01:53:34.401Z,5.86
2018-03-16T01:56:07.908Z,5.83
2018-03-16T01:58:41.643Z,5.80
2018-03-16T02:01:15.264Z,5.84
2018-03-16T02:03:48.929Z,5.83
2018-03-16T02:06:22.592Z,5.81
2018-03-16T02:08:56.268Z,5.84
2018-03-16T02:11:29.992Z,5.82
2018-03-16T02:14:03.677Z,5.80
2018-03-16T02:16:37.247Z,5.78
2018-03-16T02:19:11.074Z,5.78
2018-03-16T02:21:44.699Z,5.76
2018-03-16T02:24:18.332Z,5.76
2018-03-16T02:26:52.110Z,5.78
2018-03-16T02:29:25.651Z,5.74
2018-03-16T02:31:59.441Z,5.72
2018-03-16T02:34:32.978Z,5.75
2018-03-16T02:37:06.619Z,5.76
2018-03-16T02:39:40.242Z,5.75
2018-03-16T02:42:13.876Z,5.77
2018-03-16T02:44:47.533Z,5.75
2018-03-16T02:47:21.193Z,5.74
2018-03-16T02:49:54.889Z,5.70
2018-03-16T02:52:28.492Z,5.68
2018-03-16T02:55:02.279Z,5.66
2018-03-16T02:57:36.088Z,5.70
2018-03-16T03:00:09.946Z,5.78
2018-03-16T03:02:43.543Z,5.82
2018-03-16T03:05:17.156Z,5.84
2018-03-16T03:07:50.899Z,5.76
2018-03-16T03:10:24.697Z,5.74
2018-03-16T03:12:58.480Z,5.82
2018-03-16T03:15:32.009Z,5.82
2018-03-16T03:18:05.803Z,5.76
2018-03-16T03:20:39.618Z,5.75
2018-03-16T03:23:13.432Z,5.73
2018-03-16T03:25:47.014Z,5.80
2018-03-16T03:28:20.762Z,5.82
2018-03-16T03:30:54.374Z,5.74
2018-03-16T03:33:28.048Z,5.81
2018-03-16T03:36:01.804Z,5.75
2018-03-16T03:38:35.584Z,5.78
2018-03-16T03:41:09.201Z,5.77
2018-03-16T03:43:43.092Z,5.85
2018-03-16T03:46:16.682Z,5.86
2018-03-16T03:48:50.412Z,5.87
2018-03-16T03:51:24.084Z,5.86
2018-03-16T03:53:57.779Z,5.88
2018-03-16T03:56:31.334Z,5.87
2018-03-16T03:59:04.997Z,5.84
2018-03-16T04:01:38.597Z,5.89
2018-03-16T04:04:12.399Z,5.85
2018-03-16T04:06:46.058Z,5.82
2018-03-16T04:09:19.644Z,5.81
2018-03-16T04:11:53.321Z,5.81
2018-03-16T04:14:27.441Z,5.83
2018-03-16T04:17:17.966Z,5.78
2018-03-16T04:19:51.712Z,5.78
2018-03-16T04:22:25.288Z,5.75
2018-03-16T04:24:59.001Z,5.71
2018-03-16T04:27:32.608Z,5.72
2018-03-16T04:30:06.610Z,5.76
2018-03-16T04:32:40.274Z,5.75
2018-03-16T04:35:13.973Z,5.82
2018-03-16T04:37:47.553Z,5.88
2018-03-16T04:40:21.428Z,5.90
2018-03-16T04:42:55.211Z,5.90
2018-03-16T04:45:29.073Z,5.92
2018-03-16T04:48:02.612Z,5.96
2018-03-16T04:50:36.212Z,5.96
2018-03-16T04:53:09.756Z,6.01
2018-03-16T04:55:43.417Z,6.03
2018-03-16T04:58:16.976Z,6.04
2018-03-16T05:00:50.605Z,6.05
2018-03-16T05:03:24.216Z,6.06
2018-03-16T05:05:57.849Z,6.01
2018-03-16T05:08:31.582Z,6.06
2018-03-16T05:11:05.377Z,6.14
2018-03-16T05:13:39.211Z,6.13
2018-03-16T05:16:12.906Z,6.10
2018-03-16T05:18:46.715Z,6.10
2018-03-16T05:21:20.514Z,6.09
2018-03-16T05:23:54.149Z,6.17
2018-03-16T05:26:27.925Z,6.12
2018-03-16T05:29:01.703Z,6.16
2018-03-16T05:31:35.465Z,6.13
2018-03-16T05:34:09.192Z,6.12
2018-03-16T05:36:42.878Z,6.13
2018-03-16T05:39:16.452Z,6.18
2018-03-16T05:41:50.337Z,6.15
2018-03-16T05:44:23.863Z,6.18
2018-03-16T05:46:57.425Z,6.19
2018-03-16T05:49:30.956Z,6.21
2018-03-16T05:52:04.665Z,6.25
2018-03-16T05:54:38.193Z,6.23
2018-03-16T05:57:11.857Z,6.25
2018-03-16T05:59:45.503Z,6.21
2018-03-16T06:02:19.135Z,6.21
2018-03-16T06:04:52.764Z,6.23
2018-03-16T06:07:26.456Z,6.28
2018-03-16T06:10:00.027Z,6.37
2018-03-16T06:12:33.845Z,6.34
2018-03-16T06:15:07.394Z,6.36
2018-03-16T06:17:41.231Z,6.37
2018-03-16T06:20:14.793Z,6.44
2018-03-16T06:22:48.428Z,6.35
2018-03-16T06:25:22.024Z,6.38
2018-03-16T06:27:55.687Z,6.41
2018-03-16T06:30:29.301Z,6.44
2018-03-16T06:33:02.900Z,6.45
2018-03-16T06:35:36.689Z,6.41
2018-03-16T06:38:10.352Z,6.46
2018-03-16T06:40:44.008Z,6.50
2018-03-16T06:43:17.930Z,6.50
2018-03-16T06:45:51.546Z,6.56
2018-03-16T06:48:25.341Z,6.59
2018-03-16T06:50:59.043Z,6.58
2018-03-16T06:53:32.854Z,6.55
2018-03-16T06:56:06.701Z,6.60
2018-03-16T06:58:40.607Z,6.61
2018-03-16T07:01:14.204Z,6.68
2018-03-16T07:03:48.315Z,6.63
2018-03-16T07:06:21.997Z,6.70
2018-03-16T07:08:55.828Z,6.79
2018-03-16T07:11:29.432Z,6.75
2018-03-16T07:14:03.040Z,6.79
2018-03-16T07:16:36.729Z,6.81
2018-03-16T07:19:10.503Z,6.90
2018-03-16T07:21:44.085Z,6.78
2018-03-16T07:24:17.732Z,6.79
2018-03-16T07:26:51.492Z,6.80
2018-03-16T07:29:25.171Z,6.88
2018-03-16T07:31:58.690Z,7.03
2018-03-16T07:34:32.374Z,7.20
2018-03-16T07:37:06.185Z,7.19
2018-03-16T07:39:39.982Z,7.28
2018-03-16T07:42:13.651Z,7.20
2018-03-16T07:44:47.208Z,7.18
2018-03-16T07:47:20.838Z,7.15
2018-03-16T07:49:54.632Z,7.27
2018-03-16T07:52:28.261Z,7.22
2018-03-16T07:55:02.088Z,7.32
2018-03-16T07:57:35.708Z,7.34
2018-03-16T08:00:09.376Z,7.35
2018-03-16T08:02:42.980Z,7.49
2018-03-16T08:05:16.581Z,7.52
2018-03-16T08:07:50.306Z,7.69
2018-03-16T08:10:24.116Z,7.71
2018-03-16T08:12:57.672Z,7.79
2018-03-16T08:15:31.523Z,7.75
2018-03-16T08:18:05.538Z,7.75
2018-03-16T08:20:39.201Z,7.68
2018-03-16T08:23:12.983Z,7.68
2018-03-16T08:25:46.756Z,7.77
2018-03-16T08:28:20.524Z,7.82
2018-03-16T08:30:54.356Z,7.92
2018-03-16T08:33:27.974Z,8.04
2018-03-16T08:36:01.813Z,8.26
2018-03-16T08:38:35.781Z,8.47
2018-03-16T08:41:09.413Z,8.78
2018-03-16T08:43:42.993Z,8.97
2018-03-16T08:46:16.563Z,9.53
2018-03-16T08:48:50.353Z,9.84
2018-03-16T08:51:24.278Z,10.19
2018-03-16T08:53:58.423Z,10.38
2018-03-16T08:56:32.062Z,10.64
2018-03-16T08:59:05.745Z,10.47
2018-03-16T09:01:39.497Z,10.29
2018-03-16T09:04:13.105Z,10.22
2018-03-16T09:06:46.811Z,10.03
2018-03-16T09:09:20.541Z,10.23
2018-03-16T09:11:54.340Z,10.09
2018-03-16T09:14:28.096Z,10.09
2018-03-16T09:17:01.909Z,10.05
2018-03-16T09:19:35.725Z,9.95
2018-03-16T09:22:09.493Z,10.20
2018-03-16T09:24:43.192Z,10.09
2018-03-16T09:27:16.721Z,10.47
2018-03-16T09:29:50.368Z,10.63
2018-03-16T09:32:24.196Z,10.42
2018-03-16T09:34:57.938Z,10.69
2018-03-16T09:37:31.693Z,10.24
2018-03-16T09:40:05.389Z,10.54
2018-03-16T09:42:39.072Z,10.30
2018-03-16T09:45:13.126Z,10.38
2018-03-16T09:47:46.982Z,9.91
2018-03-16T09:50:21.473Z,9.83
2018-03-16T09:52:55.207Z,9.99
2018-03-16T09:55:40.684Z,9.76
2018-03-16T09:58:14.650Z,9.76
2018-03-16T10:00:48.169Z,10.05
2018-03-16T10:03:21.862Z,10.22
2018-03-16T10:05:55.515Z,9.67
2018-03-16T10:08:29.309Z,9.73
2018-03-16T10:11:02.973Z,9.75
2018-03-16T10:13:36.793Z,9.63
2018-03-16T10:16:10.355Z,9.54
2018-03-16T10:18:44.023Z,9.48
2018-03-16T10:21:17.935Z,9.42
2018-03-16T10:23:51.777Z,9.29
2018-03-16T10:26:26.446Z,9.28
2018-03-16T10:28:59.978Z,9.14
2018-03-16T10:31:33.770Z,9.08
2018-03-16T10:34:07.408Z,9.05
2018-03-16T10:36:41.230Z,9.01
2018-03-16T10:39:15.053Z,8.98
2018-03-16T10:41:48.614Z,8.93
2018-03-16T10:44:22.424Z,8.91
2018-03-16T10:49:59.221Z,9.10
2018-03-16T10:52:33.136Z,9.06
2018-03-16T10:55:06.704Z,9.09
2018-03-16T10:57:40.356Z,9.17
2018-03-16T11:00:14.387Z,9.18
2018-03-16T11:02:50.988Z,9.20
2018-03-16T11:05:28.587Z,9.20
2018-03-16T11:08:05.210Z,9.05
2018-03-16T11:10:38.890Z,9.09
2018-03-16T11:13:12.468Z,9.07
2018-03-16T11:15:46.127Z,9.06
2018-03-16T11:18:19.917Z,9.06
2018-03-16T11:20:53.714Z,9.10
2018-03-16T11:23:27.582Z,8.94
2018-03-16T11:26:01.355Z,8.86
2018-03-16T11:28:34.933Z,8.73
2018-03-16T11:31:08.811Z,8.64
2018-03-16T11:33:42.479Z,8.57
2018-03-16T11:36:16.247Z,8.49
2018-03-16T11:38:49.893Z,8.51
2018-03-16T11:41:23.685Z,8.49
2018-03-16T11:43:57.280Z,8.50
2018-03-16T11:46:31.048Z,8.52
2018-03-16T11:49:04.747Z,8.47
2018-03-16T11:51:38.317Z,8.52
2018-03-16T11:54:11.926Z,8.36
2018-03-16T11:56:45.565Z,8.29
2018-03-16T11:59:19.142Z,8.29
2018-03-16T12:01:52.791Z,8.24
2018-03-16T12:04:26.401Z,8.22
2018-03-16T12:07:00.166Z,8.44
2018-03-16T12:09:33.965Z,8.42
2018-03-16T12:12:07.640Z,8.40
2018-03-16T12:14:41.196Z,8.36
2018-03-16T12:17:14.828Z,8.38
2018-03-16T12:19:48.531Z,8.32
2018-03-16T12:22:22.094Z,8.24
2018-03-16T12:24:55.707Z,8.30
2018-03-16T12:27:29.493Z,8.21
2018-03-16T12:30:03.426Z,8.13
2018-03-16T12:32:37.225Z,8.02
2018-03-16T12:35:11.057Z,7.82
2018-03-16T12:37:44.650Z,7.70
2018-03-16T12:40:18.442Z,7.57
2018-03-16T12:42:52.254Z,7.58
2018-03-16T12:45:26.006Z,7.61
2018-03-16T12:47:59.680Z,7.70
2018-03-16T12:50:33.445Z,7.71
2018-03-16T12:53:07.212Z,7.61
2018-03-16T12:55:41.058Z,7.50
2018-03-16T12:58:15.024Z,7.18
2018-03-16T13:00:48.580Z,7.20
2018-03-16T13:03:22.224Z,6.91
2018-03-16T13:05:55.796Z,6.77
2018-03-16T13:08:29.480Z,6.79
2018-03-16T13:11:03.240Z,6.70
2018-03-16T13:13:36.956Z,6.56
2018-03-16T13:16:10.809Z,6.45
2018-03-16T13:18:44.603Z,6.38
2018-03-16T13:21:18.398Z,6.42
2018-03-16T13:23:52.009Z,6.49
2018-03-16T13:26:25.782Z,6.41
2018-03-16T13:28:59.352Z,6.57
2018-03-16T13:31:32.888Z,6.53
2018-03-16T13:34:06.522Z,6.53
2018-03-16T13:36:40.304Z,6.32
2018-03-16T13:39:13.908Z,6.28
2018-03-16T13:41:47.569Z,6.40
2018-03-16T13:44:21.597Z,6.45
2018-03-16T13:46:55.190Z,6.37
2018-03-16T13:49:28.977Z,6.25
2018-03-16T13:52:02.811Z,6.15
2018-03-16T13:54:36.372Z,6.14
2018-03-16T13:57:10.136Z,6.14
2018-03-16T13:59:43.810Z,6.13
2018-03-16T14:02:17.405Z,5.96
2018-03-16T14:04:51.206Z,5.94
2018-03-16T14:07:24.960Z,5.94
2018-03-16T14:09:58.686Z,6.03
2018-03-16T14:12:32.401Z,6.04
2018-03-16T14:15:06.162Z,5.96
2018-03-16T14:17:39.875Z,5.90
2018-03-16T14:20:13.723Z,5.86
2018-03-16T14:22:47.408Z,5.72
2018-03-16T14:25:21.233Z,5.69
2018-03-16T14:27:55.200Z,5.70
2018-03-16T14:30:28.956Z,5.70
2018-03-16T14:33:02.701Z,5.56
2018-03-16T14:35:36.329Z,5.50
2018-03-16T14:38:09.951Z,5.42
2018-03-16T14:40:43.766Z,5.43
2018-03-16T14:43:17.421Z,5.43
2018-03-16T14:45:51.105Z,5.39
2018-03-16T14:48:24.700Z,5.19
2018-03-16T14:50:58.346Z,5.12
2018-03-16T14:53:31.970Z,5.04
2018-03-16T14:56:05.705Z,4.97
2018-03-16T14:58:39.313Z,4.97
2018-03-16T15:01:13.117Z,4.92
2018-03-16T15:03:46.648Z,4.92
2018-03-16T15:06:20.317Z,4.79
2018-03-16T15:08:54.065Z,4.91
2018-03-16T15:11:27.734Z,4.93
2018-03-16T15:14:01.344Z,4.82
2018-03-16T15:16:35.357Z,4.72
2018-03-16T15:19:09.139Z,4.60
2018-03-16T15:21:43.003Z,4.54
2018-03-16T15:24:16.833Z,4.43
2018-03-16T15:26:50.529Z,4.47
2018-03-16T15:29:24.257Z,4.35
2018-03-16T15:31:57.992Z,4.39
2018-03-16T15:34:31.684Z,4.38
2018-03-16T15:37:05.360Z,4.32
2018-03-16T15:39:39.009Z,4.37
2018-03-16T15:42:12.626Z,4.28
2018-03-16T15:44:46.293Z,4.17
2018-03-16T15:47:19.918Z,4.16
2018-03-16T15:49:53.576Z,4.10
2018-03-16T15:52:27.171Z,4.00
2018-03-16T15:55:00.828Z,3.96
2018-03-16T15:57:34.355Z,3.94
2018-03-16T16:00:07.886Z,3.89
2018-03-16T16:02:41.463Z,3.81
2018-03-16T16:05:14.994Z,3.77
2018-03-16T16:07:48.756Z,3.75
2018-03-16T16:10:22.504Z,3.72
2018-03-16T16:12:56.186Z,3.63
2018-03-16T16:15:29.907Z,3.63
2018-03-16T16:18:03.540Z,3.63
2018-03-16T16:20:37.180Z,3.60
2018-03-16T16:23:10.745Z,3.50
2018-03-16T16:25:44.460Z,3.48
2018-03-16T16:28:18.283Z,3.51
2018-03-16T16:30:51.939Z,3.40
2018-03-16T16:33:25.758Z,3.42
2018-03-16T16:35:59.318Z,3.29
2018-03-16T16:38:32.950Z,3.27
2018-03-16T16:41:06.610Z,3.15
2018-03-16T16:43:40.247Z,3.16
2018-03-16T16:46:13.827Z,3.15
2018-03-16T16:48:47.335Z,3.10
2018-03-16T16:51:20.915Z,2.98
2018-03-16T16:53:54.474Z,3.01
2018-03-16T16:56:28.140Z,2.92
2018-03-16T16:59:01.985Z,2.82
2018-03-16T17:01:35.510Z,2.80
2018-03-16T17:04:09.211Z,2.73
2018-03-16T17:06:43.103Z,2.77
2018-03-16T17:09:16.731Z,2.72
2018-03-16T17:11:50.516Z,2.60
2018-03-16T17:14:24.150Z,2.59
2018-03-16T17:16:57.916Z,2.59
2018-03-16T17:19:31.536Z,2.58
2018-03-16T17:22:05.296Z,2.48
2018-03-16T17:24:39.033Z,2.48
2018-03-16T17:27:12.674Z,2.51
2018-03-16T17:29:46.313Z,2.52
2018-03-16T17:32:24.243Z,2.45
2018-03-16T17:34:53.606Z,2.36
2018-03-16T17:37:27.129Z,2.43
2018-03-16T17:40:00.815Z,2.41
2018-03-16T17:42:34.645Z,2.39
2018-03-16T17:45:08.270Z,2.26
2018-03-16T17:47:41.955Z,2.29
2018-03-16T17:50:15.652Z,2.20
2018-03-16T17:52:49.428Z,2.18
2018-03-16T17:55:23.380Z,2.15
2018-03-16T17:57:57.055Z,2.10
2018-03-16T18:00:30.747Z,2.11
2018-03-16T18:03:04.438Z,2.10
2018-03-16T18:05:38.146Z,2.09
2018-03-16T18:08:11.760Z,2.06
2018-03-16T18:10:45.466Z,2.03
2018-03-16T18:13:19.059Z,2.05
2018-03-16T18:15:52.642Z,2.09
2018-03-16T18:18:26.211Z,2.09
2018-03-16T18:20:59.771Z,2.07
2018-03-16T18:23:33.441Z,2.05
2018-03-16T18:26:07.158Z,2.08
2018-03-16T18:28:40.834Z,2.06
2018-03-16T18:31:14.494Z,2.05
2018-03-16T18:33:49.078Z,2.03
2018-03-16T18:36:28.322Z,1.98
2018-03-16T18:39:01.915Z,1.99
2018-03-16T18:41:35.691Z,1.99
2018-03-16T18:44:09.311Z,1.98
2018-03-16T18:46:43.019Z,1.90
2018-03-16T18:49:16.724Z,1.85
2018-03-16T18:51:50.255Z,1.89
2018-03-16T18:54:23.854Z,1.88
2018-03-16T18:56:57.450Z,1.86
2018-03-16T18:59:31.029Z,1.81
2018-03-16T19:02:04.598Z,1.81
2018-03-16T19:04:38.230Z,1.79
2018-03-16T19:07:21.943Z,1.74
2018-03-16T19:09:55.575Z,1.74
2018-03-16T19:12:29.246Z,1.72
2018-03-16T19:15:02.906Z,1.62
2018-03-16T19:17:36.514Z,1.62
2018-03-16T19:20:10.048Z,1.60
2018-03-16T19:22:43.694Z,1.60
2018-03-16T19:25:17.378Z,1.57
2018-03-16T19:27:50.943Z,1.60
2018-03-16T19:30:24.592Z,1.53
2018-03-16T19:32:58.111Z,1.58
2018-03-16T19:35:31.781Z,1.61
2018-03-16T19:38:05.487Z,1.63
2018-03-16T19:40:39.114Z,1.58
2018-03-16T19:43:12.837Z,1.54
2018-03-16T19:45:46.459Z,1.54
2018-03-16T19:48:20.072Z,1.48
2018-03-16T19:50:53.656Z,1.40
2018-03-16T19:53:27.256Z,1.41
2018-03-16T19:56:00.909Z,1.43
2018-03-16T19:58:34.594Z,1.36
2018-03-16T20:01:08.247Z,1.35
2018-03-16T20:03:41.862Z,1.27
2018-03-16T20:06:15.693Z,1.21
2018-03-16T20:08:49.466Z,1.27
2018-03-16T20:11:23.066Z,1.19
2018-03-16T20:13:56.662Z,1.25
2018-03-16T20:16:30.313Z,1.16
2018-03-16T20:19:04.126Z,1.22
2018-03-16T20:21:37.794Z,1.17
2018-03-16T20:24:11.311Z,1.15
2018-03-16T20:26:44.984Z,1.06
2018-03-16T20:29:18.659Z,1.11
2018-03-16T20:31:52.286Z,1.13
2018-03-16T20:34:25.810Z,1.12
2018-03-16T20:36:59.445Z,1.08
2018-03-16T20:39:33.042Z,1.12
2018-03-16T20:42:06.754Z,1.11
2018-03-16T20:44:40.410Z,1.07
2018-03-16T20:47:14.108Z,1.13
2018-03-16T20:49:47.640Z,1.11
2018-03-16T20:52:21.244Z,1.07
2018-03-16T20:54:55.469Z,1.01
2018-03-16T20:57:29.008Z,1.05
2018-03-16T21:00:02.629Z,0.96
2018-03-16T21:02:36.319Z,0.96
2018-03-16T21:05:10.023Z,0.95
2018-03-16T21:07:43.751Z,0.93
2018-03-16T21:10:17.457Z,0.88
2018-03-16T21:12:51.106Z,0.83
2018-03-16T21:15:24.798Z,0.85
2018-03-16T21:17:58.414Z,0.80
2018-03-16T21:20:32.232Z,0.83
2018-03-16T21:23:05.962Z,0.80
2018-03-16T21:25:39.676Z,0.77
2018-03-16T21:28:13.456Z,0.73
2018-03-16T21:30:47.451Z,0.74
2018-03-16T21:33:21.078Z,0.71
2018-03-16T21:35:54.696Z,0.69
2018-03-16T21:38:28.250Z,0.72
2018-03-16T21:41:01.934Z,0.74
2018-03-16T21:43:35.454Z,0.71
2018-03-16T21:46:09.005Z,0.68
2018-03-16T21:48:42.695Z,0.70
2018-03-16T21:51:16.333Z,0.73
2018-03-16T21:53:49.978Z,0.65
2018-03-16T21:56:23.531Z,0.70
2018-03-16T21:58:57.475Z,0.70
2018-03-16T22:01:31.175Z,0.67
2018-03-16T22:04:04.808Z,0.72
2018-03-16T22:06:38.412Z,0.71
2018-03-16T22:09:12.055Z,0.75
2018-03-16T22:11:45.591Z,0.78
2018-03-16T22:14:19.391Z,0.68
2018-03-16T22:16:53.034Z,0.71
2018-03-16T22:19:26.747Z,0.71
2018-03-16T22:22:00.375Z,0.72
2018-03-16T22:24:34.040Z,0.72
2018-03-16T22:27:07.630Z,0.73
2018-03-16T22:29:41.295Z,0.77
2018-03-16T22:32:14.928Z,0.75
2018-03-16T22:34:48.560Z,0.76
2018-03-16T22:37:22.395Z,0.83
2018-03-16T22:39:56.172Z,0.78
2018-03-16T22:42:29.732Z,0.70
2018-03-16T22:45:03.431Z,0.78
2018-03-16T22:47:37.010Z,0.73
2018-03-16T22:50:10.742Z,0.78
2018-03-16T22:52:44.291Z,0.79
2018-03-16T22:55:18.008Z,0.81
2018-03-16T22:57:51.530Z,0.82
2018-03-16T23:00:25.119Z,0.77
2018-03-16T23:02:58.838Z,0.79
2018-03-16T23:05:32.460Z,0.78
2018-03-16T23:08:06.114Z,0.81
2018-03-16T23:10:39.634Z,0.81
2018-03-16T23:13:13.271Z,0.84
2018-03-16T23:15:46.899Z,0.81
2018-03-16T23:18:20.465Z,0.84
2018-03-16T23:20:54.195Z,0.78
2018-03-16T23:23:27.894Z,0.74
2018-03-16T23:26:01.596Z,0.75
2018-03-16T23:28:35.154Z,0.72
2018-03-16T23:31:08.690Z,0.76
2018-03-16T23:33:42.246Z,0.74
2018-03-16T23:36:16.020Z,0.70
2018-03-16T23:38:49.654Z,0.66
2018-03-16T23:41:23.134Z,0.60
2018-03-16T23:43:56.728Z,0.64
2018-03-16T23:46:30.545Z,0.55
2018-03-16T23:49:04.297Z,0.55
2018-03-16T23:51:37.942Z,0.50
2018-03-16T23:54:11.462Z,0.44
2018-03-16T23:56:45.131Z,0.43
2018-03-16T23:59:18.975Z,0.42
